sensor_id;sensor_type;location;lat;lon;timestamp;P1;durP1;ratioP1;P2;durP2;ratioP2
60718;SDS011;46567;51.660;5.824;2022-08-11T00:02:33;3.6;;;2.7;;
60718;SDS011;46567;51.660;5.824;2022-08-11T00:07:32;4.6;;;2.9;;
60718;SDS011;46567;51.660;5.824;2022-08-11T00:12:32;4.9;;;2.8;;
60718;SDS011;46567;51.660;5.824;2022-08-11T00:17:33;3.2;;;2.9;;
60718;SDS011;46567;51.660;5.824;2022-08-11T00:22:32;5.2;;;2.9;;
60718;SDS011;46567;51.660;5.824;2022-08-11T00:27:36;11.2;;;3.3;;
60718;SDS011;46567;51.660;5.824;2022-08-11T00:32:32;4.1;;;3.1;;
60718;SDS011;46567;51.660;5.824;2022-08-11T00:37:33;4.8;;;3.0;;
60718;SDS011;46567;51.660;5.824;2022-08-11T00:43:46;5.8;;;2.9;;
60718;SDS011;46567;51.660;5.824;2022-08-11T00:48:47;5.0;;;3.1;;
60718;SDS011;46567;51.660;5.824;2022-08-11T00:56:04;4.7;;;3.2;;
60718;SDS011;46567;51.660;5.824;2022-08-11T01:02:46;4.3;;;3.0;;
60718;SDS011;46567;51.660;5.824;2022-08-11T01:12:08;4.8;;;3.0;;
60718;SDS011;46567;51.660;5.824;2022-08-11T01:22:47;7.2;;;2.5;;
60718;SDS011;46567;51.660;5.824;2022-08-11T01:36:42;3.2;;;2.5;;
60718;SDS011;46567;51.660;5.824;2022-08-11T01:45:28;5.6;;;2.8;;
60718;SDS011;46567;51.660;5.824;2022-08-11T01:50:30;5.6;;;2.9;;
60718;SDS011;46567;51.660;5.824;2022-08-11T01:55:36;4.6;;;2.7;;
60718;SDS011;46567;51.660;5.824;2022-08-11T02:00:27;7.0;;;2.7;;
60718;SDS011;46567;51.660;5.824;2022-08-11T02:06:03;5.7;;;2.7;;
60718;SDS011;46567;51.660;5.824;2022-08-11T02:11:26;6.7;;;2.9;;
60718;SDS011;46567;51.660;5.824;2022-08-11T02:15:44;3.3;;;2.7;;
60718;SDS011;46567;51.660;5.824;2022-08-11T02:20:48;3.5;;;2.7;;
60718;SDS011;46567;51.660;5.824;2022-08-11T02:24:59;4.6;;;2.9;;
60718;SDS011;46567;51.660;5.824;2022-08-11T02:29:02;6.4;;;3.0;;
60718;SDS011;46567;51.660;5.824;2022-08-11T02:33:28;3.9;;;2.8;;
60718;SDS011;46567;51.660;5.824;2022-08-11T02:38:15;4.4;;;2.9;;
60718;SDS011;46567;51.660;5.824;2022-08-11T02:42:58;4.6;;;3.2;;
60718;SDS011;46567;51.660;5.824;2022-08-11T02:48:39;5.0;;;3.0;;
60718;SDS011;46567;51.660;5.824;2022-08-11T02:53:35;4.5;;;3.3;;
60718;SDS011;46567;51.660;5.824;2022-08-11T02:58:18;4.8;;;3.2;;
60718;SDS011;46567;51.660;5.824;2022-08-11T03:01:58;5.1;;;3.3;;
60718;SDS011;46567;51.660;5.824;2022-08-11T03:07:18;3.6;;;3.1;;
60718;SDS011;46567;51.660;5.824;2022-08-11T03:11:55;4.8;;;3.3;;
60718;SDS011;46567;51.660;5.824;2022-08-11T03:16:19;3.6;;;2.8;;
60718;SDS011;46567;51.660;5.824;2022-08-11T03:21:20;6.8;;;3.7;;
60718;SDS011;46567;51.660;5.824;2022-08-11T03:25:50;4.1;;;3.3;;
60718;SDS011;46567;51.660;5.824;2022-08-11T03:30:26;3.6;;;2.9;;
60718;SDS011;46567;51.660;5.824;2022-08-11T03:34:08;5.4;;;3.1;;
60718;SDS011;46567;51.660;5.824;2022-08-11T03:35:27;4.6;;;3.1;;
60718;SDS011;46567;51.660;5.824;2022-08-11T03:40:15;3.7;;;3.2;;
60718;SDS011;46567;51.660;5.824;2022-08-11T03:46:15;6.4;;;3.5;;
60718;SDS011;46567;51.660;5.824;2022-08-11T03:51:32;5.3;;;3.1;;
60718;SDS011;46567;51.660;5.824;2022-08-11T03:57:45;6.5;;;3.5;;
60718;SDS011;46567;51.660;5.824;2022-08-11T04:08:38;6.3;;;3.7;;
60718;SDS011;46567;51.660;5.824;2022-08-11T04:17:27;7.3;;;4.1;;
60718;SDS011;46567;51.660;5.824;2022-08-11T04:26:33;5.8;;;3.9;;
60718;SDS011;46567;51.660;5.824;2022-08-11T04:33:01;4.5;;;3.6;;
60718;SDS011;46567;51.660;5.824;2022-08-11T04:39:46;6.1;;;4.0;;
60718;SDS011;46567;51.660;5.824;2022-08-11T04:49:44;6.2;;;3.9;;
60718;SDS011;46567;51.660;5.824;2022-08-11T04:56:19;5.3;;;3.9;;
60718;SDS011;46567;51.660;5.824;2022-08-11T05:00:44;5.3;;;3.9;;
60718;SDS011;46567;51.660;5.824;2022-08-11T05:09:34;6.1;;;4.1;;
60718;SDS011;46567;51.660;5.824;2022-08-11T05:14:32;5.2;;;4.0;;
60718;SDS011;46567;51.660;5.824;2022-08-11T05:17:39;10.9;;;4.8;;
60718;SDS011;46567;51.660;5.824;2022-08-11T05:19:06;6.2;;;4.7;;
60718;SDS011;46567;51.660;5.824;2022-08-11T05:19:29;8.1;;;5.0;;
60718;SDS011;46567;51.660;5.824;2022-08-11T05:19:50;6.0;;;4.2;;
60718;SDS011;46567;51.660;5.824;2022-08-11T05:20:08;8.2;;;4.4;;
60718;SDS011;46567;51.660;5.824;2022-08-11T05:21:04;10.5;;;5.1;;
60718;SDS011;46567;51.660;5.824;2022-08-11T05:22:30;6.8;;;4.6;;
60718;SDS011;46567;51.660;5.824;2022-08-11T05:24:42;9.1;;;5.0;;
60718;SDS011;46567;51.660;5.824;2022-08-11T05:26:54;6.6;;;4.7;;
60718;SDS011;46567;51.660;5.824;2022-08-11T05:30:10;5.5;;;4.5;;
60718;SDS011;46567;51.660;5.824;2022-08-11T05:32:02;5.8;;;4.7;;
60718;SDS011;46567;51.660;5.824;2022-08-11T05:34:33;6.5;;;4.6;;
60718;SDS011;46567;51.660;5.824;2022-08-11T05:37:37;5.5;;;4.6;;
60718;SDS011;46567;51.660;5.824;2022-08-11T05:38:52;6.2;;;4.6;;
60718;SDS011;46567;51.660;5.824;2022-08-11T05:42:32;8.0;;;4.6;;
60718;SDS011;46567;51.660;5.824;2022-08-11T05:47:32;6.6;;;4.8;;
60718;SDS011;46567;51.660;5.824;2022-08-11T05:52:32;6.4;;;5.2;;
60718;SDS011;46567;51.660;5.824;2022-08-11T05:57:35;11.6;;;5.9;;
60718;SDS011;46567;51.660;5.824;2022-08-11T06:02:32;7.1;;;5.2;;
60718;SDS011;46567;51.660;5.824;2022-08-11T06:07:32;6.6;;;4.9;;
60718;SDS011;46567;51.660;5.824;2022-08-11T06:12:34;7.7;;;4.8;;
60718;SDS011;46567;51.660;5.824;2022-08-11T06:17:33;6.9;;;4.6;;
60718;SDS011;46567;51.660;5.824;2022-08-11T06:22:32;6.1;;;4.2;;
60718;SDS011;46567;51.660;5.824;2022-08-11T06:27:33;5.8;;;4.6;;
60718;SDS011;46567;51.660;5.824;2022-08-11T06:32:33;5.4;;;4.3;;
60718;SDS011;46567;51.660;5.824;2022-08-11T06:37:52;6.2;;;3.8;;
60718;SDS011;46567;51.660;5.824;2022-08-11T06:42:45;5.5;;;4.3;;
60718;SDS011;46567;51.660;5.824;2022-08-11T06:47:32;6.7;;;4.0;;
60718;SDS011;46567;51.660;5.824;2022-08-11T06:52:34;5.2;;;3.6;;
60718;SDS011;46567;51.660;5.824;2022-08-11T06:57:32;5.6;;;3.7;;
60718;SDS011;46567;51.660;5.824;2022-08-11T07:02:36;4.8;;;3.3;;
60718;SDS011;46567;51.660;5.824;2022-08-11T07:09:23;5.5;;;3.5;;
60718;SDS011;46567;51.660;5.824;2022-08-11T07:13:23;5.1;;;2.9;;
60718;SDS011;46567;51.660;5.824;2022-08-11T07:17:33;5.0;;;3.1;;
60718;SDS011;46567;51.660;5.824;2022-08-11T07:22:32;6.4;;;2.9;;
60718;SDS011;46567;51.660;5.824;2022-08-11T07:27:42;3.1;;;2.8;;
60718;SDS011;46567;51.660;5.824;2022-08-11T07:32:33;4.7;;;2.6;;
60718;SDS011;46567;51.660;5.824;2022-08-11T07:37:32;4.8;;;2.7;;
60718;SDS011;46567;51.660;5.824;2022-08-11T07:42:33;4.1;;;2.5;;
60718;SDS011;46567;51.660;5.824;2022-08-11T07:47:34;3.8;;;2.7;;
60718;SDS011;46567;51.660;5.824;2022-08-11T07:52:33;4.0;;;2.7;;
60718;SDS011;46567;51.660;5.824;2022-08-11T07:57:32;4.0;;;2.4;;
60718;SDS011;46567;51.660;5.824;2022-08-11T08:02:32;4.4;;;2.4;;
60718;SDS011;46567;51.660;5.824;2022-08-11T08:07:32;6.1;;;2.8;;
60718;SDS011;46567;51.660;5.824;2022-08-11T08:12:32;3.3;;;2.3;;
60718;SDS011;46567;51.660;5.824;2022-08-11T08:17:34;4.2;;;2.4;;
60718;SDS011;46567;51.660;5.824;2022-08-11T08:22:34;4.5;;;2.7;;
60718;SDS011;46567;51.660;5.824;2022-08-11T08:27:32;4.6;;;2.5;;
60718;SDS011;46567;51.660;5.824;2022-08-11T08:32:32;4.4;;;2.5;;
60718;SDS011;46567;51.660;5.824;2022-08-11T08:37:32;3.8;;;2.4;;
60718;SDS011;46567;51.660;5.824;2022-08-11T08:42:34;5.2;;;2.6;;
60718;SDS011;46567;51.660;5.824;2022-08-11T08:47:33;3.4;;;2.3;;
60718;SDS011;46567;51.660;5.824;2022-08-11T08:52:38;4.7;;;2.3;;
60718;SDS011;46567;51.660;5.824;2022-08-11T08:57:35;4.9;;;2.5;;
60718;SDS011;46567;51.660;5.824;2022-08-11T09:02:32;3.3;;;2.7;;
60718;SDS011;46567;51.660;5.824;2022-08-11T09:07:32;3.2;;;2.5;;
60718;SDS011;46567;51.660;5.824;2022-08-11T09:12:32;4.6;;;2.4;;
60718;SDS011;46567;51.660;5.824;2022-08-11T09:17:39;4.4;;;2.6;;
60718;SDS011;46567;51.660;5.824;2022-08-11T09:22:33;3.4;;;2.3;;
60718;SDS011;46567;51.660;5.824;2022-08-11T09:27:32;4.4;;;2.5;;
60718;SDS011;46567;51.660;5.824;2022-08-11T09:32:32;3.9;;;2.2;;
60718;SDS011;46567;51.660;5.824;2022-08-11T09:37:32;3.8;;;2.4;;
60718;SDS011;46567;51.660;5.824;2022-08-11T09:42:32;4.0;;;2.5;;
60718;SDS011;46567;51.660;5.824;2022-08-11T09:47:32;4.4;;;2.4;;
60718;SDS011;46567;51.660;5.824;2022-08-11T09:52:35;2.7;;;2.1;;
60718;SDS011;46567;51.660;5.824;2022-08-11T09:57:32;4.0;;;2.4;;
60718;SDS011;46567;51.660;5.824;2022-08-11T10:02:32;3.0;;;2.2;;
60718;SDS011;46567;51.660;5.824;2022-08-11T10:07:32;3.0;;;2.1;;
60718;SDS011;46567;51.660;5.824;2022-08-11T10:12:34;4.9;;;2.7;;
60718;SDS011;46567;51.660;5.824;2022-08-11T10:17:35;5.2;;;2.4;;
60718;SDS011;46567;51.660;5.824;2022-08-11T10:22:33;3.8;;;2.3;;
60718;SDS011;46567;51.660;5.824;2022-08-11T10:27:32;3.8;;;2.3;;
60718;SDS011;46567;51.660;5.824;2022-08-11T10:32:32;4.9;;;2.4;;
60718;SDS011;46567;51.660;5.824;2022-08-11T10:37:32;3.5;;;2.6;;
60718;SDS011;46567;51.660;5.824;2022-08-11T10:42:32;8.6;;;2.8;;
60718;SDS011;46567;51.660;5.824;2022-08-11T10:47:32;4.1;;;2.1;;
60718;SDS011;46567;51.660;5.824;2022-08-11T10:52:32;5.3;;;2.4;;
60718;SDS011;46567;51.660;5.824;2022-08-11T10:57:32;3.8;;;2.2;;
60718;SDS011;46567;51.660;5.824;2022-08-11T11:02:32;3.0;;;2.1;;
60718;SDS011;46567;51.660;5.824;2022-08-11T11:07:37;2.4;;;1.9;;
60718;SDS011;46567;51.660;5.824;2022-08-11T11:12:33;2.6;;;2.0;;
60718;SDS011;46567;51.660;5.824;2022-08-11T11:17:34;2.6;;;2.2;;
60718;SDS011;46567;51.660;5.824;2022-08-11T11:22:32;2.7;;;2.2;;
60718;SDS011;46567;51.660;5.824;2022-08-11T11:27:36;3.3;;;2.0;;
60718;SDS011;46567;51.660;5.824;2022-08-11T11:33:07;2.7;;;1.9;;
60718;SDS011;46567;51.660;5.824;2022-08-11T11:37:34;3.1;;;2.0;;
60718;SDS011;46567;51.660;5.824;2022-08-11T11:42:32;3.3;;;2.2;;
60718;SDS011;46567;51.660;5.824;2022-08-11T11:47:34;3.1;;;1.9;;
60718;SDS011;46567;51.660;5.824;2022-08-11T11:52:32;2.3;;;2.0;;
60718;SDS011;46567;51.660;5.824;2022-08-11T11:57:32;2.9;;;1.8;;
60718;SDS011;46567;51.660;5.824;2022-08-11T12:02:32;4.8;;;2.0;;
60718;SDS011;46567;51.660;5.824;2022-08-11T12:07:32;2.5;;;2.1;;
60718;SDS011;46567;51.660;5.824;2022-08-11T12:12:32;2.0;;;1.8;;
60718;SDS011;46567;51.660;5.824;2022-08-11T12:17:32;2.5;;;2.0;;
60718;SDS011;46567;51.660;5.824;2022-08-11T12:22:32;3.4;;;1.9;;
60718;SDS011;46567;51.660;5.824;2022-08-11T12:27:32;3.0;;;2.1;;
60718;SDS011;46567;51.660;5.824;2022-08-11T12:32:35;3.5;;;1.8;;
60718;SDS011;46567;51.660;5.824;2022-08-11T12:37:34;3.6;;;2.2;;
60718;SDS011;46567;51.660;5.824;2022-08-11T12:42:33;4.5;;;2.1;;
60718;SDS011;46567;51.660;5.824;2022-08-11T12:47:32;3.4;;;2.0;;
60718;SDS011;46567;51.660;5.824;2022-08-11T12:52:33;1.9;;;1.7;;
60718;SDS011;46567;51.660;5.824;2022-08-11T12:57:34;1.9;;;1.7;;
60718;SDS011;46567;51.660;5.824;2022-08-11T13:02:32;3.7;;;1.8;;
60718;SDS011;46567;51.660;5.824;2022-08-11T13:07:32;2.0;;;1.7;;
60718;SDS011;46567;51.660;5.824;2022-08-11T13:12:32;3.3;;;1.8;;
60718;SDS011;46567;51.660;5.824;2022-08-11T13:17:32;3.4;;;1.7;;
60718;SDS011;46567;51.660;5.824;2022-08-11T13:22:32;2.9;;;2.0;;
60718;SDS011;46567;51.660;5.824;2022-08-11T13:27:32;2.0;;;1.6;;
60718;SDS011;46567;51.660;5.824;2022-08-11T13:32:32;3.1;;;1.9;;
60718;SDS011;46567;51.660;5.824;2022-08-11T13:37:32;3.5;;;1.7;;
60718;SDS011;46567;51.660;5.824;2022-08-11T13:42:32;2.3;;;1.9;;
60718;SDS011;46567;51.660;5.824;2022-08-11T13:47:33;2.9;;;2.0;;
60718;SDS011;46567;51.660;5.824;2022-08-11T13:52:33;2.6;;;1.7;;
60718;SDS011;46567;51.660;5.824;2022-08-11T13:57:32;2.1;;;1.8;;
60718;SDS011;46567;51.660;5.824;2022-08-11T14:02:32;5.0;;;1.9;;
60718;SDS011;46567;51.660;5.824;2022-08-11T14:07:36;2.5;;;1.6;;
60718;SDS011;46567;51.660;5.824;2022-08-11T14:12:33;1.9;;;1.7;;
60718;SDS011;46567;51.660;5.824;2022-08-11T14:17:32;2.5;;;1.9;;
60718;SDS011;46567;51.660;5.824;2022-08-11T14:22:32;1.8;;;1.7;;
60718;SDS011;46567;51.660;5.824;2022-08-11T14:27:32;11.7;;;2.3;;
60718;SDS011;46567;51.660;5.824;2022-08-11T14:32:32;3.9;;;1.9;;
60718;SDS011;46567;51.660;5.824;2022-08-11T14:37:32;7.4;;;2.0;;
60718;SDS011;46567;51.660;5.824;2022-08-11T14:42:32;2.1;;;1.6;;
60718;SDS011;46567;51.660;5.824;2022-08-11T14:47:34;2.3;;;1.8;;
60718;SDS011;46567;51.660;5.824;2022-08-11T14:52:33;4.2;;;1.8;;
60718;SDS011;46567;51.660;5.824;2022-08-11T14:57:34;4.3;;;1.9;;
60718;SDS011;46567;51.660;5.824;2022-08-11T15:02:33;2.0;;;1.6;;
60718;SDS011;46567;51.660;5.824;2022-08-11T15:07:32;2.9;;;1.7;;
60718;SDS011;46567;51.660;5.824;2022-08-11T15:12:33;2.1;;;1.6;;
60718;SDS011;46567;51.660;5.824;2022-08-11T15:17:32;2.8;;;1.8;;
60718;SDS011;46567;51.660;5.824;2022-08-11T15:22:32;3.7;;;1.6;;
60718;SDS011;46567;51.660;5.824;2022-08-11T15:27:32;3.2;;;1.6;;
60718;SDS011;46567;51.660;5.824;2022-08-11T15:32:32;3.3;;;1.8;;
60718;SDS011;46567;51.660;5.824;2022-08-11T15:37:32;4.7;;;1.8;;
60718;SDS011;46567;51.660;5.824;2022-08-11T15:42:33;2.1;;;1.7;;
60718;SDS011;46567;51.660;5.824;2022-08-11T15:47:41;5.3;;;1.3;;
60718;SDS011;46567;51.660;5.824;2022-08-11T15:52:33;1.8;;;1.7;;
60718;SDS011;46567;51.660;5.824;2022-08-11T15:57:32;2.3;;;1.5;;
60718;SDS011;46567;51.660;5.824;2022-08-11T16:02:32;2.8;;;1.8;;
60718;SDS011;46567;51.660;5.824;2022-08-11T16:07:33;2.6;;;1.8;;
60718;SDS011;46567;51.660;5.824;2022-08-11T16:12:34;2.1;;;1.6;;
60718;SDS011;46567;51.660;5.824;2022-08-11T16:17:40;6.9;;;1.7;;
60718;SDS011;46567;51.660;5.824;2022-08-11T16:22:33;1.7;;;1.6;;
60718;SDS011;46567;51.660;5.824;2022-08-11T16:27:34;2.5;;;1.6;;
60718;SDS011;46567;51.660;5.824;2022-08-11T16:32:33;2.6;;;1.7;;
60718;SDS011;46567;51.660;5.824;2022-08-11T16:37:33;3.3;;;1.6;;
60718;SDS011;46567;51.660;5.824;2022-08-11T16:42:32;3.5;;;1.5;;
60718;SDS011;46567;51.660;5.824;2022-08-11T16:47:32;2.4;;;1.4;;
60718;SDS011;46567;51.660;5.824;2022-08-11T16:52:33;3.2;;;1.8;;
60718;SDS011;46567;51.660;5.824;2022-08-11T16:57:32;2.3;;;1.6;;
60718;SDS011;46567;51.660;5.824;2022-08-11T17:02:36;4.6;;;2.3;;
60718;SDS011;46567;51.660;5.824;2022-08-11T17:07:32;6.7;;;1.9;;
60718;SDS011;46567;51.660;5.824;2022-08-11T17:12:33;3.8;;;1.7;;
60718;SDS011;46567;51.660;5.824;2022-08-11T17:17:37;3.0;;;1.7;;
60718;SDS011;46567;51.660;5.824;2022-08-11T17:22:35;3.9;;;1.8;;
60718;SDS011;46567;51.660;5.824;2022-08-11T17:27:32;1.9;;;1.7;;
60718;SDS011;46567;51.660;5.824;2022-08-11T17:32:33;2.5;;;1.8;;
60718;SDS011;46567;51.660;5.824;2022-08-11T17:37:33;2.3;;;1.7;;
60718;SDS011;46567;51.660;5.824;2022-08-11T17:42:33;3.8;;;2.0;;
60718;SDS011;46567;51.660;5.824;2022-08-11T17:47:32;2.9;;;1.6;;
60718;SDS011;46567;51.660;5.824;2022-08-11T17:52:32;4.3;;;1.9;;
60718;SDS011;46567;51.660;5.824;2022-08-11T17:57:32;3.1;;;1.6;;
60718;SDS011;46567;51.660;5.824;2022-08-11T18:02:34;5.6;;;1.8;;
60718;SDS011;46567;51.660;5.824;2022-08-11T18:07:32;3.5;;;1.7;;
60718;SDS011;46567;51.660;5.824;2022-08-11T18:12:32;3.6;;;1.8;;
60718;SDS011;46567;51.660;5.824;2022-08-11T18:17:33;3.5;;;1.8;;
60718;SDS011;46567;51.660;5.824;2022-08-11T18:22:37;5.8;;;1.8;;
60718;SDS011;46567;51.660;5.824;2022-08-11T18:27:33;6.5;;;1.9;;
60718;SDS011;46567;51.660;5.824;2022-08-11T18:32:33;5.4;;;1.8;;
60718;SDS011;46567;51.660;5.824;2022-08-11T18:37:35;3.5;;;2.1;;
60718;SDS011;46567;51.660;5.824;2022-08-11T18:42:32;5.3;;;2.0;;
60718;SDS011;46567;51.660;5.824;2022-08-11T18:47:33;5.6;;;2.1;;
60718;SDS011;46567;51.660;5.824;2022-08-11T18:52:33;3.6;;;1.9;;
60718;SDS011;46567;51.660;5.824;2022-08-11T18:57:33;3.8;;;2.0;;
60718;SDS011;46567;51.660;5.824;2022-08-11T19:02:36;3.1;;;2.2;;
60718;SDS011;46567;51.660;5.824;2022-08-11T19:07:32;3.8;;;2.3;;
60718;SDS011;46567;51.660;5.824;2022-08-11T19:12:38;4.2;;;2.6;;
60718;SDS011;46567;51.660;5.824;2022-08-11T19:17:33;5.6;;;2.6;;
60718;SDS011;46567;51.660;5.824;2022-08-11T19:22:33;6.7;;;2.6;;
60718;SDS011;46567;51.660;5.824;2022-08-11T19:27:33;7.7;;;3.1;;
60718;SDS011;46567;51.660;5.824;2022-08-11T19:32:33;5.3;;;2.7;;
60718;SDS011;46567;51.660;5.824;2022-08-11T19:37:33;5.2;;;2.9;;
60718;SDS011;46567;51.660;5.824;2022-08-11T19:42:33;7.8;;;3.1;;
60718;SDS011;46567;51.660;5.824;2022-08-11T19:47:33;7.2;;;3.1;;
60718;SDS011;46567;51.660;5.824;2022-08-11T19:52:33;6.6;;;3.2;;
60718;SDS011;46567;51.660;5.824;2022-08-11T19:57:33;7.7;;;3.0;;
60718;SDS011;46567;51.660;5.824;2022-08-11T20:02:33;6.1;;;3.2;;
60718;SDS011;46567;51.660;5.824;2022-08-11T20:07:33;6.3;;;3.3;;
60718;SDS011;46567;51.660;5.824;2022-08-11T20:12:33;9.4;;;3.0;;
60718;SDS011;46567;51.660;5.824;2022-08-11T20:17:34;10.5;;;3.7;;
60718;SDS011;46567;51.660;5.824;2022-08-11T20:22:33;5.5;;;3.4;;
60718;SDS011;46567;51.660;5.824;2022-08-11T20:27:33;8.9;;;3.7;;
60718;SDS011;46567;51.660;5.824;2022-08-11T20:32:33;7.5;;;3.6;;
60718;SDS011;46567;51.660;5.824;2022-08-11T20:37:34;9.5;;;3.7;;
60718;SDS011;46567;51.660;5.824;2022-08-11T20:42:33;5.5;;;3.7;;
60718;SDS011;46567;51.660;5.824;2022-08-11T20:47:37;11.9;;;4.3;;
60718;SDS011;46567;51.660;5.824;2022-08-11T20:52:33;8.0;;;4.4;;
60718;SDS011;46567;51.660;5.824;2022-08-11T20:57:33;7.8;;;4.1;;
60718;SDS011;46567;51.660;5.824;2022-08-11T21:02:33;4.1;;;3.4;;
60718;SDS011;46567;51.660;5.824;2022-08-11T21:07:34;7.1;;;4.0;;
60718;SDS011;46567;51.660;5.824;2022-08-11T21:12:33;8.4;;;3.8;;
60718;SDS011;46567;51.660;5.824;2022-08-11T21:17:34;7.7;;;4.2;;
60718;SDS011;46567;51.660;5.824;2022-08-11T21:22:41;7.9;;;4.1;;
60718;SDS011;46567;51.660;5.824;2022-08-11T21:27:33;6.5;;;4.1;;
60718;SDS011;46567;51.660;5.824;2022-08-11T21:32:33;6.9;;;4.8;;
60718;SDS011;46567;51.660;5.824;2022-08-11T21:37:33;9.3;;;5.2;;
60718;SDS011;46567;51.660;5.824;2022-08-11T21:42:33;7.5;;;5.2;;
60718;SDS011;46567;51.660;5.824;2022-08-11T21:47:33;8.4;;;4.8;;
60718;SDS011;46567;51.660;5.824;2022-08-11T21:52:33;7.5;;;4.9;;
60718;SDS011;46567;51.660;5.824;2022-08-11T21:57:33;11.6;;;7.2;;
60718;SDS011;46567;51.660;5.824;2022-08-11T22:02:33;14.9;;;8.7;;
60718;SDS011;46567;51.660;5.824;2022-08-11T22:07:33;10.0;;;7.5;;
60718;SDS011;46567;51.660;5.824;2022-08-11T22:12:33;10.2;;;6.7;;
60718;SDS011;46567;51.660;5.824;2022-08-11T22:17:33;8.9;;;7.0;;
60718;SDS011;46567;51.660;5.824;2022-08-11T22:22:33;10.3;;;6.3;;
60718;SDS011;46567;51.660;5.824;2022-08-11T22:27:33;9.5;;;5.9;;
60718;SDS011;46567;51.660;5.824;2022-08-11T22:32:33;7.5;;;5.1;;
60718;SDS011;46567;51.660;5.824;2022-08-11T22:37:33;6.6;;;5.0;;
60718;SDS011;46567;51.660;5.824;2022-08-11T22:42:33;5.6;;;4.0;;
60718;SDS011;46567;51.660;5.824;2022-08-11T22:47:33;5.1;;;4.3;;
60718;SDS011;46567;51.660;5.824;2022-08-11T22:52:33;6.0;;;4.3;;
60718;SDS011;46567;51.660;5.824;2022-08-11T22:57:33;5.8;;;3.8;;
60718;SDS011;46567;51.660;5.824;2022-08-11T23:02:33;6.6;;;3.9;;
60718;SDS011;46567;51.660;5.824;2022-08-11T23:07:33;4.8;;;4.0;;
60718;SDS011;46567;51.660;5.824;2022-08-11T23:12:33;3.8;;;3.4;;
60718;SDS011;46567;51.660;5.824;2022-08-11T23:17:33;4.1;;;3.2;;
60718;SDS011;46567;51.660;5.824;2022-08-11T23:22:33;5.1;;;2.9;;
60718;SDS011;46567;51.660;5.824;2022-08-11T23:27:33;4.1;;;3.1;;
60718;SDS011;46567;51.660;5.824;2022-08-11T23:32:33;5.1;;;3.4;;
60718;SDS011;46567;51.660;5.824;2022-08-11T23:37:33;3.5;;;3.2;;
60718;SDS011;46567;51.660;5.824;2022-08-11T23:42:35;4.1;;;2.8;;
60718;SDS011;46567;51.660;5.824;2022-08-11T23:47:33;4.1;;;3.1;;
60718;SDS011;46567;51.660;5.824;2022-08-11T23:52:33;4.1;;;2.6;;
60718;SDS011;46567;51.660;5.824;2022-08-11T23:57:33;3.9;;;2.7;;
